Time;durP1;ratioP1;P1;durP2;ratioP2;P2;SDS_P1;SDS_P2;PMS_P1;PMS_P2;Temp;Humidity;BMP_temperature;BMP_pressure;BME280_temperature;BME280_humidity;BME280_pressure;Samples;Min_cycle;Max_cycle;Signal;HPM_P1;HPM_P2
2021/04/12 00:00:29;;;;;;;6.60;6.00;;;5.40;99.90;;;;;;5058940;28;20198;-87
2021/04/12 00:03:14;;;;;;;4.97;4.57;;;;;;;;;;5058392;28;20361;-87
2021/04/12 00:05:50;;;;;;;9.25;4.85;;;;;;;;;;5068222;28;20229;-87
2021/04/12 00:08:39;;;;;;;6.35;5.60;;;5.40;99.90;;;;;;5074952;28;20203;-87
2021/04/12 00:11:21;;;;;;;6.18;5.57;;;5.20;99.90;;;;;;5075396;28;20183;-87
2021/04/12 00:14:16;;;;;;;6.28;5.65;;;5.20;99.90;;;;;;5070671;28;20214;-87
2021/04/12 00:17:20;;;;;;;5.25;4.78;;;5.10;99.90;;;;;;5077360;28;20203;-87
2021/04/12 00:20:13;;;;;;;6.00;5.07;;;5.10;99.90;;;;;;5077513;28;20198;-87
2021/04/12 00:23:06;;;;;;;6.03;5.15;;;5.00;99.90;;;;;;5077085;28;20215;-87
2021/04/12 00:25:43;;;;;;;5.05;4.65;;;5.10;99.90;;;;;;5077651;28;20195;-87
2021/04/12 00:28:33;;;;;;;5.32;4.85;;;5.10;99.90;;;;;;5077887;28;20183;-87
2021/04/12 00:31:13;;;;;;;5.10;4.60;;;5.00;99.90;;;;;;5078401;28;20258;-87
2021/04/12 00:34:02;;;;;;;4.60;4.13;;;5.10;99.90;;;;;;5078057;28;20218;-87
2021/04/12 00:36:45;;;;;;;4.82;4.43;;;4.90;99.90;;;;;;5077379;28;20199;-86
2021/04/12 00:39:39;;;;;;;;;;;;;;;;;;;;;
2021/04/12 00:45:12;;;;;;;5.63;4.72;;;4.80;99.90;;;;;;4094448;26;20274;-88
2021/04/12 00:47:56;;;;;;;5.32;4.88;;;4.90;99.90;;;;;;5056615;28;20226;-88
2021/04/12 00:54:40;;;;;;;5.30;4.80;;;4.50;99.90;;;;;;5053196;28;20299;-88
2021/04/12 00:57:07;;;;;;;5.35;4.53;;;;;;;;;;5051082;22;20256;31
2021/04/12 00:59:45;;;;;;;5.40;4.90;;;4.50;99.90;;;;;;5051491;28;20227;-84
2021/04/12 01:02:25;;;;;;;8.45;5.15;;;4.50;99.90;;;;;;5049375;28;20248;-83
2021/04/12 01:05:00;;;;;;;7.28;5.43;;;4.40;99.90;;;;;;5045014;28;20188;-84
2021/04/12 01:07:51;;;;;;;6.20;5.47;;;4.40;99.90;;;;;;5047148;28;20230;-85
2021/04/12 01:10:53;;;;;;;6.53;5.88;;;4.30;99.90;;;;;;5051729;28;20176;-83
2021/04/12 01:13:53;;;;;;;8.85;6.97;;;4.30;99.90;;;;;;5052195;28;20187;-84
2021/04/12 01:16:39;;;;;;;6.57;5.97;;;4.20;99.90;;;;;;5022545;28;20246;-83
2021/04/12 01:19:45;;;;;;;4.78;4.28;;;3.40;99.90;;;;;;5051962;28;20223;-82
2021/04/12 01:22:48;;;;;;;6.72;5.10;;;4.00;99.90;;;;;;5044867;28;20226;-83
2021/04/12 01:26:02;;;;;;;6.05;5.30;;;4.40;99.90;;;;;;5054649;28;20176;-83
2021/04/12 01:29:20;;;;;;;6.70;5.40;;;4.30;99.90;;;;;;5054616;28;20254;-82
2021/04/12 01:32:05;;;;;;;5.40;4.88;;;4.40;99.90;;;;;;5044683;28;20219;-84
2021/04/12 01:34:59;;;;;;;7.45;5.90;;;4.40;99.90;;;;;;5044927;28;20206;-83
2021/04/12 01:37:38;;;;;;;10.30;6.15;;;4.40;99.90;;;;;;5046569;28;20233;-84
2021/04/12 01:40:25;;;;;;;8.73;5.82;;;4.40;99.90;;;;;;5047365;28;20184;-83
2021/04/12 01:43:03;;;;;;;6.97;5.47;;;4.60;99.90;;;;;;5046888;28;20192;-83
2021/04/12 01:45:49;;;;;;;6.82;6.20;;;4.20;99.90;;;;;;5043162;28;20251;-83
2021/04/12 01:48:39;;;;;;;8.40;6.13;;;4.30;99.90;;;;;;5050178;28;20223;-85
2021/04/12 01:51:21;;;;;;;7.20;6.60;;;4.40;99.90;;;;;;5051909;28;20234;-84
2021/04/12 01:54:03;;;;;;;7.30;6.07;;;4.80;99.90;;;;;;5048061;28;20210;-85
2021/04/12 01:56:41;;;;;;;6.95;6.25;;;4.50;99.90;;;;;;5047021;28;20212;-84
2021/04/12 01:59:24;;;;;;;6.28;5.65;;;4.40;99.90;;;;;;5043216;28;20250;-83
2021/04/12 02:02:26;;;;;;;8.00;6.60;;;4.30;99.90;;;;;;5038979;28;20192;-83
2021/04/12 02:05:06;;;;;;;8.52;6.63;;;4.40;99.90;;;;;;5007028;28;20249;-84
2021/04/12 02:07:46;;;;;;;6.57;5.53;;;4.30;99.90;;;;;;5041656;28;20277;-84
2021/04/12 02:10:32;;;;;;;5.70;5.20;;;4.60;99.90;;;;;;5042961;28;20188;-84
2021/04/12 02:13:09;;;;;;;9.32;5.93;;;4.60;99.90;;;;;;5044224;28;20203;-83
2021/04/12 02:15:51;;;;;;;6.60;5.90;;;4.50;99.90;;;;;;5042844;28;20224;-81
2021/04/12 02:18:35;;;;;;;7.80;6.30;;;4.60;99.90;;;;;;5043682;28;20235;-84
2021/04/12 02:21:13;;;;;;;6.53;5.93;;;4.50;99.90;;;;;;5042788;28;20187;-84
2021/04/12 02:23:54;;;;;;;9.63;6.47;;;4.50;99.90;;;;;;5043782;28;20207;-83
2021/04/12 02:26:42;;;;;;;6.47;5.85;;;4.50;99.90;;;;;;5047453;28;20180;-83
2021/04/12 02:29:23;;;;;;;7.38;5.45;;;4.50;99.90;;;;;;5044810;28;20231;-84
2021/04/12 02:31:55;;;;;;;5.53;4.70;;;4.60;99.90;;;;;;5044818;28;20192;-83
2021/04/12 02:34:30;;;;;;;7.45;5.70;;;4.30;99.90;;;;;;5045021;28;20655;-83
2021/04/12 02:37:14;;;;;;;4.88;4.47;;;4.10;99.90;;;;;;5044306;28;20188;-83
2021/04/12 02:39:54;;;;;;;6.03;5.43;;;4.40;99.90;;;;;;5057606;28;20176;-82
2021/04/12 02:42:34;;;;;;;6.65;5.63;;;4.10;99.90;;;;;;5058635;28;20219;-82
2021/04/12 02:45:14;;;;;;;10.15;6.70;;;4.20;99.90;;;;;;5046326;28;20195;-81
2021/04/12 02:47:56;;;;;;;7.75;5.90;;;4.30;99.90;;;;;;5044311;28;20228;-81
2021/04/12 02:50:33;;;;;;;5.28;4.78;;;4.30;99.90;;;;;;5044661;28;20263;-81
2021/04/12 02:53:10;;;;;;;5.95;5.35;;;4.10;99.90;;;;;;5045807;28;20207;-82
2021/04/12 02:55:55;;;;;;;6.00;5.05;;;4.10;99.90;;;;;;5049123;28;20215;-80
2021/04/12 02:58:58;;;;;;;18.27;13.90;;;4.10;99.90;;;;;;5050347;28;20231;-81
2021/04/12 03:01:37;;;;;;;7.20;5.70;;;4.40;99.90;;;;;;5046194;28;20487;-81
2021/04/12 03:04:13;;;;;;;6.25;5.63;;;4.30;99.90;;;;;;5048780;28;20199;-82
2021/04/12 03:07:14;;;;;;;6.70;5.28;;;4.30;99.90;;;;;;5048680;28;20187;-84
2021/04/12 03:10:11;;;;;;;6.60;5.35;;;4.20;99.90;;;;;;5050569;28;20199;-83
2021/04/12 03:13:07;;;;;;;7.85;6.40;;;4.20;99.90;;;;;;5051060;28;20176;-82
2021/04/12 03:16:13;;;;;;;10.68;5.70;;;4.30;99.90;;;;;;5056094;28;20457;-80
2021/04/12 03:19:23;;;;;;;6.15;5.55;;;4.30;99.90;;;;;;5052777;28;20227;-82
2021/04/12 03:22:17;;;;;;;6.35;5.50;;;4.30;99.90;;;;;;5020104;28;20208;-82
2021/04/12 03:25:01;;;;;;;6.97;6.28;;;4.30;99.90;;;;;;5053288;28;20222;-82
2021/04/12 03:27:57;;;;;;;9.02;6.40;;;4.80;99.90;;;;;;5050920;28;20231;-82
2021/04/12 03:30:43;;;;;;;8.90;5.85;;;4.30;99.90;;;;;;5047897;28;20204;-82
2021/04/12 03:33:19;;;;;;;8.50;5.70;;;4.40;99.90;;;;;;5051516;28;20230;-84
2021/04/12 03:35:54;;;;;;;7.80;4.75;;;4.50;99.90;;;;;;5051639;28;20666;-82
2021/04/12 03:38:38;;;;;;;6.35;5.45;;;4.50;99.90;;;;;;5045956;28;20449;-82
2021/04/12 03:41:40;;;;;;;8.88;6.30;;;4.40;99.90;;;;;;5044541;28;20441;-82
2021/04/12 03:44:17;;;;;;;6.47;5.65;;;4.70;99.90;;;;;;5021761;28;20200;-84
2021/04/12 03:47:00;;;;;;;6.78;5.88;;;4.60;99.90;;;;;;5045017;28;20187;-84
2021/04/12 03:49:36;;;;;;;6.38;5.78;;;4.50;99.90;;;;;;5043138;28;20196;-83
2021/04/12 03:52:37;;;;;;;6.15;5.65;;;4.50;99.90;;;;;;5041723;28;20188;-83
2021/04/12 03:55:19;;;;;;;5.10;4.60;;;4.50;99.90;;;;;;5041251;28;20227;-84
2021/04/12 03:58:01;;;;;;;5.60;5.10;;;4.60;99.90;;;;;;5041030;28;20303;-82
2021/04/12 04:00:51;;;;;;;7.05;5.85;;;4.60;99.90;;;;;;5041786;28;20183;-81
2021/04/12 04:03:34;;;;;;;5.10;4.10;;;4.40;99.90;;;;;;5040235;28;20191;-82
2021/04/12 04:06:48;;;;;;;5.72;5.13;;;4.40;99.90;;;;;;5039101;28;20195;-82
2021/04/12 04:09:34;;;;;;;5.53;5.03;;;4.60;99.90;;;;;;4980277;28;20222;-82
2021/04/12 04:12:12;;;;;;;9.48;5.55;;;4.40;99.90;;;;;;5039243;28;20198;-84
2021/04/12 04:15:17;;;;;;;5.80;4.55;;;4.40;99.90;;;;;;5039750;28;20577;-83
2021/04/12 04:18:00;;;;;;;6.18;4.70;;;4.50;99.90;;;;;;5039132;28;20816;-83
2021/04/12 04:20:41;;;;;;;7.22;4.57;;;4.40;99.90;;;;;;5039024;28;20215;-83
2021/04/12 04:23:36;;;;;;;6.93;4.72;;;4.50;99.90;;;;;;5040100;28;20184;-83
2021/04/12 04:26:36;;;;;;;5.95;4.50;;;4.50;99.90;;;;;;5034242;28;20199;-83
2021/04/12 04:29:29;;;;;;;8.32;5.57;;;4.60;99.90;;;;;;5006791;28;20637;-82
2021/04/12 04:32:17;;;;;;;5.13;4.65;;;4.60;99.90;;;;;;5043378;28;20254;-84
2021/04/12 04:35:02;;;;;;;8.40;5.75;;;4.60;99.90;;;;;;5045267;28;20196;-83
2021/04/12 04:37:59;;;;;;;5.47;5.00;;;4.70;99.90;;;;;;5045426;28;20223;-83
2021/04/12 04:40:34;;;;;;;5.55;4.90;;;4.50;99.90;;;;;;5033965;28;20238;-84
2021/04/12 04:43:14;;;;;;;4.95;4.20;;;4.40;99.90;;;;;;5045831;28;20194;-83
2021/04/12 04:46:02;;;;;;;8.18;4.63;;;4.50;99.90;;;;;;5044358;28;20187;-83
2021/04/12 04:48:52;;;;;;;5.88;5.38;;;4.60;99.90;;;;;;5040832;28;20231;-84
2021/04/12 04:51:34;;;;;;;4.93;4.43;;;4.60;99.90;;;;;;5044415;28;20245;-84
2021/04/12 04:54:26;;;;;;;4.93;4.30;;;4.50;99.90;;;;;;5042472;28;20196;-83
2021/04/12 04:57:13;;;;;;;5.10;4.60;;;4.40;99.90;;;;;;5046094;28;20243;-82
2021/04/12 05:00:04;;;;;;;4.90;4.35;;;4.50;99.90;;;;;;5045761;28;20199;-83
2021/04/12 05:02:58;;;;;;;5.88;4.57;;;4.70;99.90;;;;;;5055695;28;20204;-84
2021/04/12 05:05:36;;;;;;;5.63;4.07;;;4.60;99.90;;;;;;5028217;28;20199;-83
2021/04/12 05:08:21;;;;;;;7.82;4.10;;;4.70;99.90;;;;;;5040772;28;20230;-83
2021/04/12 05:11:36;;;;;;;4.28;3.90;;;4.50;99.90;;;;;;5041237;28;20678;-83
2021/04/12 05:14:32;;;;;;;5.05;4.18;;;4.40;99.90;;;;;;5005889;28;20298;-83
2021/04/12 05:17:23;;;;;;;4.03;3.70;;;4.30;99.90;;;;;;5039778;28;20214;-83
2021/04/12 05:20:06;;;;;;;3.95;3.42;;;4.70;99.90;;;;;;5040514;28;20224;-82
2021/04/12 05:23:03;;;;;;;4.22;3.83;;;4.50;99.90;;;;;;5047470;28;20260;-83
2021/04/12 05:26:07;;;;;;;4.07;3.58;;;4.50;99.90;;;;;;5049966;28;20195;-84
2021/04/12 05:28:57;;;;;;;8.77;3.95;;;4.60;99.90;;;;;;5049598;28;20227;-84
2021/04/12 05:31:48;;;;;;;6.13;4.47;;;4.60;99.90;;;;;;5043176;28;20214;-84
2021/04/12 05:35:07;;;;;;;4.05;3.67;;;4.60;99.90;;;;;;5040507;28;20533;-83
2021/04/12 05:37:51;;;;;;;8.77;3.90;;;4.70;99.90;;;;;;4979117;28;20828;-84
2021/04/12 05:40:40;;;;;;;5.10;2.95;;;4.50;99.90;;;;;;4978481;28;20197;-84
2021/04/12 05:43:30;;;;;;;3.35;3.05;;;4.70;99.90;;;;;;5034219;28;20208;-83
2021/04/12 05:46:25;;;;;;;3.90;3.60;;;4.60;99.90;;;;;;5040522;28;20226;-84
2021/04/12 05:49:22;;;;;;;3.83;3.53;;;4.70;99.90;;;;;;5031532;28;20706;-85
2021/04/12 05:52:04;;;;;;;5.55;3.50;;;4.60;99.90;;;;;;5050121;28;20192;-84
2021/04/12 05:54:51;;;;;;;3.95;3.60;;;4.80;99.90;;;;;;5049786;28;20250;-84
2021/04/12 05:57:33;;;;;;;3.20;2.90;;;4.60;99.90;;;;;;5046272;28;20753;-86
2021/04/12 06:00:26;;;;;;;7.43;3.28;;;4.50;99.90;;;;;;5040855;28;20199;-83
2021/04/12 06:03:16;;;;;;;3.50;3.28;;;4.70;99.90;;;;;;5049363;28;20588;-84
2021/04/12 06:06:07;;;;;;;5.10;3.53;;;4.70;99.90;;;;;;5042792;28;20250;-84
2021/04/12 06:08:48;;;;;;;3.22;3.03;;;4.60;99.90;;;;;;5042931;28;20314;-84
2021/04/12 06:11:43;;;;;;;3.38;3.10;;;4.90;99.90;;;;;;5042714;28;20254;-84
2021/04/12 06:14:33;;;;;;;4.03;3.60;;;4.80;99.90;;;;;;5056810;28;20196;-83
2021/04/12 06:17:32;;;;;;;5.63;3.78;;;4.40;99.90;;;;;;5049797;28;20611;-84
2021/04/12 06:20:29;;;;;;;9.27;3.40;;;4.70;99.90;;;;;;5055570;28;20180;-83
2021/04/12 06:23:35;;;;;;;4.15;3.33;;;4.80;99.90;;;;;;5036973;28;20187;-83
2021/04/12 06:26:29;;;;;;;8.38;3.90;;;4.80;99.90;;;;;;5048122;28;20183;-83
2021/04/12 06:29:10;;;;;;;16.33;9.18;;;4.60;99.90;;;;;;5034965;28;20242;-82
2021/04/12 06:31:57;;;;;;;4.30;3.78;;;4.50;99.90;;;;;;5056433;28;20222;-82
2021/04/12 06:34:45;;;;;;;4.45;4.05;;;4.40;99.90;;;;;;5049646;28;20218;-82
2021/04/12 06:37:18;;;;;;;6.40;4.60;;;4.70;99.90;;;;;;5045657;28;20681;-83
2021/04/12 06:39:57;;;;;;;4.30;3.00;;;4.70;99.90;;;;;;5044445;28;20188;-83
2021/04/12 06:42:57;;;;;;;3.70;3.40;;;4.70;99.90;;;;;;5042581;28;20195;-82
2021/04/12 06:45:56;;;;;;;5.22;4.57;;;4.60;99.90;;;;;;5051257;28;20199;-83
2021/04/12 06:49:01;;;;;;;7.28;3.72;;;4.70;99.90;;;;;;5053189;28;20227;-83
2021/04/12 06:52:15;;;;;;;4.00;3.70;;;4.70;99.90;;;;;;5052292;28;20215;-83
2021/04/12 06:54:47;;;;;;;3.78;3.45;;;4.80;99.90;;;;;;5030996;28;20268;-83
2021/04/12 07:03:44;;;;;;;3.97;2.60;;;4.90;99.90;;;;;;4387196;26;20288;-87
2021/04/12 07:06:57;;;;;;;3.05;2.85;;;4.90;99.90;;;;;;5061124;28;20191;-87
2021/04/12 07:09:59;;;;;;;3.75;2.47;;;5.00;99.90;;;;;;5063578;28;20222;-87
2021/04/12 07:13:24;;;;;;;;;;;;;;;;;;;;;
2021/04/12 07:16:27;;;;;;;4.38;3.97;;;5.00;99.90;;;;;;5019260;28;20238;-87
2021/04/12 07:19:29;;;;;;;3.72;3.42;;;4.90;99.90;;;;;;5061808;28;20239;-87
2021/04/12 07:22:43;;;;;;;4.55;4.15;;;5.00;99.90;;;;;;5060905;28;20261;-87
2021/04/12 07:25:41;;;;;;;3.40;3.10;;;5.00;99.90;;;;;;5060902;28;20198;-87
2021/04/12 07:28:38;;;;;;;4.25;3.55;;;5.30;99.90;;;;;;5065354;28;20226;-87
2021/04/12 07:31:33;;;;;;;3.67;2.85;;;5.30;99.90;;;;;;5061538;28;20191;-88
2021/04/12 07:34:29;;;;;;;9.77;3.08;;;5.20;99.90;;;;;;5061709;28;20217;-87
2021/04/12 07:37:23;;;;;;;4.45;3.00;;;5.20;99.90;;;;;;5061262;28;20306;-87
2021/04/12 07:40:31;;;;;;;3.33;3.03;;;5.40;99.90;;;;;;5061090;28;20309;-87
2021/04/12 07:43:37;;;;;;;5.90;3.70;;;5.20;99.90;;;;;;5061414;28;20282;-87
2021/04/12 07:46:49;;;;;;;3.90;3.40;;;5.20;99.90;;;;;;5061041;28;20199;-87
2021/04/12 07:50:03;;;;;;;4.75;4.35;;;5.30;99.90;;;;;;5060215;28;20225;-87
2021/04/12 07:53:05;;;;;;;7.18;3.28;;;5.40;99.90;;;;;;5058729;28;20670;-85
2021/04/12 07:55:55;;;;;;;3.45;3.25;;;5.20;99.90;;;;;;5019701;28;20222;-87
2021/04/12 07:59:12;;;;;;;4.40;3.08;;;5.20;99.90;;;;;;5060194;28;20234;-87
2021/04/12 08:02:12;;;;;;;8.88;2.65;;;5.40;99.90;;;;;;4965438;28;20273;-88
2021/04/12 08:05:24;;;;;;;2.58;2.33;;;5.40;99.90;;;;;;5058700;28;20203;-87
2021/04/12 08:08:31;;;;;;;3.53;2.40;;;5.20;99.90;;;;;;5021904;28;20211;-88
2021/04/12 08:11:35;;;;;;;3.25;2.38;;;5.10;99.90;;;;;;5059205;28;20202;-88
2021/04/12 08:14:47;;;;;;;3.20;2.88;;;5.60;99.90;;;;;;5060112;28;20309;-88
2021/04/12 08:17:52;;;;;;;5.15;3.35;;;5.30;99.90;;;;;;5058953;28;20218;-87
2021/04/12 08:20:35;;;;;;;2.60;2.50;;;5.70;99.90;;;;;;5063179;28;20198;-87
2021/04/12 08:23:50;;;;;;;3.75;2.20;;;5.80;99.90;;;;;;5066717;28;20241;-87
2021/04/12 08:26:54;;;;;;;3.20;2.03;;;5.60;99.90;;;;;;5069577;28;20188;-87
2021/04/12 08:30:11;;;;;;;3.17;1.65;;;5.80;99.90;;;;;;5071780;28;20230;-86
2021/04/12 08:33:35;;;;;;;2.58;2.03;;;6.00;99.90;;;;;;5073057;28;20202;-86
2021/04/12 08:36:45;;;;;;;5.03;2.63;;;5.80;99.90;;;;;;5074008;28;20227;-87
2021/04/12 08:39:49;;;;;;;17.60;3.75;;;5.90;99.90;;;;;;5062527;28;20227;-87
2021/04/12 08:42:54;;;;;;;6.28;2.42;;;6.30;99.90;;;;;;5012260;28;20207;-87
2021/04/12 08:45:59;;;;;;;13.45;3.25;;;6.50;99.90;;;;;;5064980;28;20229;-87
2021/04/12 08:48:51;;;;;;;8.63;2.60;;;6.30;99.90;;;;;;5075207;28;20223;-87
2021/04/12 08:51:51;;;;;;;3.38;1.50;;;6.40;99.90;;;;;;5077551;28;20171;-88
2021/04/12 08:54:42;;;;;;;6.15;2.70;;;6.50;99.90;;;;;;5036708;28;20213;-87
2021/04/12 08:58:05;;;;;;;3.92;2.83;;;6.60;99.90;;;;;;5077368;28;20210;-87
2021/04/12 09:04:53;;;;;;;1.95;1.65;;;6.20;99.90;;;;;;5076909;28;20218;-87
2021/04/12 09:08:16;;;;;;;;;;;;;;;;;;;;;
2021/04/12 09:11:29;;;;;;;2.10;1.90;;;6.30;99.90;;;;;;5077277;28;20163;-87
2021/04/12 09:14:41;;;;;;;7.40;2.10;;;6.40;99.90;;;;;;5073325;28;20211;-87
2021/04/12 09:17:53;;;;;;;2.97;2.00;;;6.50;99.90;;;;;;5075728;28;20202;-87
2021/04/12 09:21:15;;;;;;;2.25;2.05;;;6.60;99.90;;;;;;5076861;28;20215;-87
2021/04/12 09:24:30;;;;;;;3.25;1.90;;;6.80;99.90;;;;;;5068453;28;20211;-87
2021/04/12 09:27:31;;;;;;;3.28;1.77;;;6.90;99.90;;;;;;5000519;28;20791;-87
2021/04/12 09:30:37;;;;;;;2.10;1.90;;;6.70;99.90;;;;;;4998280;28;20224;-87
2021/04/12 09:33:53;;;;;;;3.90;2.60;;;6.90;99.90;;;;;;4986807;28;20220;-88
2021/04/12 09:36:51;;;;;;;2.13;2.00;;;6.70;99.90;;;;;;5061986;28;20685;-87
2021/04/12 09:39:42;;;;;;;2.92;2.60;;;6.50;99.90;;;;;;5062754;28;20314;-88
2021/04/12 09:42:47;;;;;;;9.48;2.50;;;6.80;99.90;;;;;;5063331;28;20203;-87
2021/04/12 09:46:04;;;;;;;2.10;1.90;;;6.90;99.90;;;;;;5064135;28;20229;-87
2021/04/12 09:49:10;;;;;;;4.47;4.05;;;6.80;99.90;;;;;;5041975;28;20288;-87
2021/04/12 09:52:03;;;;;;;6.38;2.80;;;6.20;99.90;;;;;;5031543;28;20268;-87
2021/04/12 09:55:23;;;;;;;;;;;;;;;;;;;;;
2021/04/12 09:58:26;;;;;;;2.00;1.90;;;6.60;99.90;;;;;;5061730;28;20203;-87
2021/04/12 10:01:18;;;;;;;2.63;2.42;;;6.50;99.90;;;;;;5046024;28;20210;-87
2021/04/12 10:04:39;;;;;;;3.65;3.17;;;6.60;99.90;;;;;;5061432;28;20301;-87
2021/04/12 10:08:07;;;;;;;3.60;3.30;;;7.20;99.90;;;;;;5061492;28;20205;-87
2021/04/12 10:14:28;;;;;;;4.20;2.38;;;7.30;99.90;;;;;;4990997;28;20292;-88
2021/04/12 10:17:11;;;;;;;2.55;2.35;;;7.10;99.90;;;;;;5061012;28;20657;-87
2021/04/12 10:19:55;;;;;;;2.55;2.35;;;7.00;99.90;;;;;;5061562;28;20223;-87
2021/04/12 10:22:41;;;;;;;4.53;2.90;;;7.50;99.90;;;;;;5068966;28;20202;-88
2021/04/12 10:25:15;;;;;;;4.10;2.53;;;7.50;99.90;;;;;;5079241;28;20281;-88
2021/04/12 10:33:29;;;;;;;10.68;3.60;;;7.40;99.90;;;;;;4543591;22;20240;-87
2021/04/12 10:36:32;;;;;;;3.50;3.03;;;7.20;99.90;;;;;;5081087;28;20206;-87
2021/04/12 10:39:30;;;;;;;7.88;3.13;;;7.40;99.90;;;;;;5080096;28;20245;-88
2021/04/12 10:45:56;;;;;;;2.75;2.55;;;7.80;99.90;;;;;;5032081;28;20194;-87
2021/04/12 10:48:48;;;;;;;3.20;2.90;;;7.40;99.90;;;;;;4947438;28;20215;-89
2021/04/12 10:51:41;;;;;;;9.57;3.80;;;7.50;99.90;;;;;;5038745;28;20208;-88
2021/04/12 10:54:41;;;;;;;3.38;2.72;;;7.10;99.90;;;;;;5069579;28;20211;-87
2021/04/12 11:00:41;;;;;;;2.40;2.20;;;7.10;99.90;;;;;;5076206;28;20229;-86
2021/04/12 11:03:39;;;;;;;4.45;3.10;;;7.40;99.90;;;;;;5078883;28;20190;-88
2021/04/12 11:06:51;;;;;;;4.45;2.20;;;7.60;99.90;;;;;;5069488;28;20207;-87
2021/04/12 11:09:34;;;;;;;1.90;1.67;;;7.50;99.90;;;;;;5078489;28;20227;-87
2021/04/12 11:12:09;;;;;;;2.95;2.58;;;7.40;99.90;;;;;;5080330;28;20171;-87
2021/04/12 11:14:47;;;;;;;2.80;2.40;;;7.20;99.90;;;;;;5079679;28;20238;-88
2021/04/12 12:18:08;;;;;;;2.58;2.33;;;7.70;99.90;;;;;;4837702;29;20701;-87
2021/04/12 12:24:12;;;;;;;3.35;1.90;;;8.40;99.90;;;;;;4861531;29;20305;-87
2021/04/12 12:30:01;;;;;;;2.35;1.88;;;8.40;99.90;;;;;;4980773;28;20699;-87
2021/04/12 12:33:00;;;;;;;2.65;1.80;;;8.40;99.90;;;;;;4983520;28;20220;-87
2021/04/12 12:36:05;;;;;;;2.25;2.15;;;8.30;99.90;;;;;;5059222;28;20218;-88
2021/04/12 12:38:54;;;;;;;4.40;2.20;;;8.70;99.90;;;;;;5069229;28;20229;-88
2021/04/12 12:41:39;;;;;;;5.90;1.73;;;8.80;99.90;;;;;;5070632;28;20408;-88
2021/04/12 12:44:26;;;;;;;1.40;1.30;;;8.30;99.90;;;;;;5074996;28;20438;-88
2021/04/12 12:52:57;;;;;;;3.72;1.90;;;7.80;99.90;;;;;;5040711;28;20249;-87
2021/04/12 12:55:35;;;;;;;2.15;1.95;;;8.10;99.90;;;;;;5070941;28;20215;-87
2021/04/12 12:58:26;;;;;;;4.28;1.95;;;8.20;99.90;;;;;;5066500;28;20195;-87
2021/04/12 13:01:04;;;;;;;3.00;1.65;;;8.60;99.90;;;;;;5064912;28;20577;-87
2021/04/12 13:06:45;;;;;;;2.42;1.50;;;;;;;;;;5065144;28;20179;-87
2021/04/12 13:09:38;;;;;;;;;;;;;;;;;;;;;
2021/04/12 13:12:15;;;;;;;4.65;2.00;;;8.20;99.90;;;;;;5076961;28;20195;-87
2021/04/12 13:15:08;;;;;;;1.70;1.60;;;8.30;99.90;;;;;;5077083;28;20194;-88
2021/04/12 13:17:47;;;;;;;5.30;1.90;;;8.20;99.90;;;;;;5075254;28;20231;-87
2021/04/12 13:20:24;;;;;;;2.55;1.88;;;8.00;99.90;;;;;;5064532;28;20191;-88
2021/04/12 13:23:17;;;;;;;2.67;2.00;;;8.20;99.90;;;;;;5061863;28;20203;-88
2021/04/12 13:25:57;;;;;;;4.38;3.00;;;8.20;99.90;;;;;;5062381;28;20187;-87
2021/04/12 13:28:44;;;;;;;6.13;1.90;;;8.30;99.90;;;;;;5062715;28;20231;-88
2021/04/12 13:31:39;;;;;;;3.50;1.75;;;8.20;99.90;;;;;;5061379;28;20233;-87
2021/04/12 13:34:43;;;;;;;3.47;2.10;;;8.50;99.90;;;;;;5063069;28;20566;-87
2021/04/12 13:37:16;;;;;;;5.45;2.50;;;8.20;99.90;;;;;;5075988;28;20213;-88
2021/04/12 13:40:19;;;;;;;4.05;2.95;;;8.30;99.90;;;;;;5069424;28;20314;-88
2021/04/12 13:43:15;;;;;;;2.20;1.75;;;8.60;99.90;;;;;;5062954;28;20592;-89
2021/04/12 13:45:51;;;;;;;4.53;1.73;;;8.70;99.90;;;;;;5064101;28;20217;-88
2021/04/12 13:48:33;;;;;;;3.25;2.00;;;8.80;99.90;;;;;;5071863;28;20276;-88
2021/04/12 13:51:24;;;;;;;2.70;2.00;;;8.80;99.90;;;;;;5064043;28;20215;-88
2021/04/12 13:54:17;;;;;;;2.23;1.77;;;8.80;99.90;;;;;;5063440;28;20210;-88
2021/04/12 14:04:36;;;;;;;6.33;2.43;;;8.90;99.90;;;;;;5061931;28;20441;-88
2021/04/12 14:14:13;;;;;;;;;;;;;;;;;;;;;
2021/04/12 14:20:48;;;;;;;3.67;2.47;;;8.90;99.90;;;;;;4976940;28;20509;-89
2021/04/12 14:33:09;;;;;;;2.77;2.00;;;8.80;99.90;;;;;;5003122;28;20414;-88
2021/04/12 14:43:26;;;;;;;6.10;2.60;;;9.00;99.90;;;;;;4965784;28;20427;-88
2021/04/12 14:46:31;;;;;;;3.60;1.63;;;9.00;99.90;;;;;;5006482;28;20423;-88
2021/04/12 14:59:53;;;;;;;;;;;;;;;;;;;;;
2021/04/12 15:06:55;;;;;;;;;;;;;;;;;;;;;
2021/04/12 15:13:44;;;;;;;3.00;2.10;;;8.70;99.90;;;;;;5057891;28;20461;-88
2021/04/12 15:16:43;;;;;;;3.93;2.47;;;8.70;99.90;;;;;;5063982;28;20483;-88
2021/04/12 15:22:43;;;;;;;1.83;1.73;;;8.50;99.90;;;;;;5063673;28;20496;-88
2021/04/12 15:25:36;;;;;;;2.80;1.90;;;8.50;99.90;;;;;;5063353;28;20211;-88
2021/04/12 15:28:22;;;;;;;5.88;3.13;;;8.50;99.90;;;;;;5064891;28;20437;-87
2021/04/12 15:38:10;;;;;;;6.17;1.70;;;8.80;99.90;;;;;;4945797;29;21010;-88
2021/04/12 15:41:07;;;;;;;3.50;2.10;;;8.90;99.90;;;;;;5005854;28;20461;-88
2021/04/12 15:44:00;;;;;;;2.00;1.70;;;;;;;;;;5064623;28;20428;-88
2021/04/12 15:46:57;;;;;;;5.87;2.33;;;8.70;99.90;;;;;;5063785;28;20453;-88
2021/04/12 15:49:45;;;;;;;3.73;2.13;;;8.60;99.90;;;;;;5064536;28;20474;-88
2021/04/12 15:52:38;;;;;;;4.90;1.97;;;8.20;99.90;;;;;;5068462;28;20434;-88
2021/04/12 15:55:31;;;;;;;3.15;1.35;;;8.30;99.90;;;;;;5068128;28;20464;-88
2021/04/12 15:58:47;;;;;;;1.97;1.70;;;8.50;99.90;;;;;;5063993;28;20242;-89
2021/04/12 16:01:54;;;;;;;;;;;;;;;;;;;;;
2021/04/12 16:04:43;;;;;;;5.60;1.80;;;8.50;99.90;;;;;;5072019;28;20175;-88
2021/04/12 16:08:01;;;;;;;;;;;;;;;;;;;;;
2021/04/12 16:17:27;;;;;;;3.90;1.80;;;8.40;99.90;;;;;;5049666;28;20241;-88
2021/04/12 16:27:14;;;;;;;2.15;1.92;;;8.30;99.90;;;;;;4969375;28;20210;-88
2021/04/12 16:30:13;;;;;;;4.03;2.55;;;8.60;99.90;;;;;;4977955;28;20226;-88
2021/04/12 16:40:11;;;;;;;2.80;2.07;;;8.60;99.90;;;;;;5066561;28;20997;-87
2021/04/12 16:43:17;;;;;;;2.20;2.03;;;8.60;99.90;;;;;;5005900;28;20431;-87
2021/04/12 16:49:36;;;;;;;5.70;1.90;;;8.60;99.90;;;;;;4927694;29;20479;-88
2021/04/12 16:55:57;;;;;;;7.20;1.93;;;8.60;99.90;;;;;;5053217;28;20441;-88
2021/04/12 17:05:44;;;;;;;1.87;1.40;;;8.60;99.90;;;;;;5043589;28;20411;-89
2021/04/12 17:16:12;;;;;;;2.05;1.30;;;8.30;99.90;;;;;;5075872;28;20422;-87
2021/04/12 17:19:30;;;;;;;2.40;2.20;;;8.30;99.90;;;;;;5016450;28;20232;-88
2021/04/12 17:25:43;;;;;;;3.63;2.60;;;8.20;99.90;;;;;;5010383;28;20456;-88
2021/04/12 17:39:13;;;;;;;3.92;2.10;;;8.00;99.90;;;;;;4954802;28;20216;-88
2021/04/12 18:16:44;;;;;;;2.20;2.00;;;7.60;99.90;;;;;;5045868;22;20262;-83
2021/04/12 18:19:17;;;;;;;3.97;3.35;;;7.50;99.90;;;;;;5049041;28;20188;-83
2021/04/12 18:21:47;;;;;;;3.50;3.10;;;7.30;99.90;;;;;;5048422;28;20610;-83
2021/04/12 18:24:20;;;;;;;5.68;3.42;;;7.50;99.90;;;;;;5054105;28;20192;-82
2021/04/12 18:26:50;;;;;;;3.38;2.03;;;7.50;99.90;;;;;;5049853;28;20228;-82
2021/04/12 18:29:26;;;;;;;2.72;2.50;;;7.40;99.90;;;;;;5052274;28;20192;-83
2021/04/12 18:31:58;;;;;;;7.00;2.72;;;7.60;99.90;;;;;;5053783;28;20192;-83
2021/04/12 18:34:29;;;;;;;6.40;3.13;;;7.80;99.90;;;;;;5052478;28;20200;-82
2021/04/12 18:37:01;;;;;;;4.45;2.88;;;7.60;99.90;;;;;;5051927;28;20228;-82
2021/04/12 18:39:31;;;;;;;5.20;2.75;;;7.50;99.90;;;;;;5049361;28;20211;-83
2021/04/12 18:42:05;;;;;;;2.70;2.40;;;7.60;99.90;;;;;;5046514;28;20240;-82
2021/04/12 18:44:37;;;;;;;2.45;1.88;;;7.60;99.90;;;;;;5052670;28;20541;-82
2021/04/12 18:47:33;;;;;;;3.85;2.33;;;7.40;99.90;;;;;;5051204;28;20231;-82
2021/04/12 18:50:08;;;;;;;4.00;2.75;;;7.10;99.90;;;;;;5049529;28;20191;-83
2021/04/12 18:52:37;;;;;;;3.90;2.20;;;6.90;99.90;;;;;;5044472;28;20191;-82
2021/04/12 18:55:10;;;;;;;3.00;2.67;;;6.80;99.90;;;;;;5045786;28;20214;-81
2021/04/12 18:57:42;;;;;;;2.70;2.22;;;6.90;99.90;;;;;;5046069;28;20296;-83
2021/04/12 19:00:18;;;;;;;3.28;2.28;;;6.70;99.90;;;;;;5047588;28;20200;-82
2021/04/12 19:03:13;;;;;;;3.10;2.35;;;6.70;99.90;;;;;;5046635;28;20195;-82
2021/04/12 19:05:54;;;;;;;4.43;2.92;;;6.80;99.90;;;;;;5046422;28;20215;-82
2021/04/12 19:08:29;;;;;;;3.05;2.85;;;6.60;99.90;;;;;;5044708;28;20547;-81
2021/04/12 19:11:01;;;;;;;7.60;3.47;;;6.60;99.90;;;;;;5045876;28;20195;-82
2021/04/12 19:13:35;;;;;;;3.05;2.40;;;6.60;99.90;;;;;;5044907;28;20215;-82
2021/04/12 19:16:15;;;;;;;5.25;3.05;;;7.00;99.90;;;;;;5044783;28;20214;-82
2021/04/12 19:18:50;;;;;;;7.57;3.50;;;6.60;99.90;;;;;;5045906;28;20191;-83
2021/04/12 19:21:40;;;;;;;3.95;3.00;;;6.50;99.90;;;;;;5044394;28;20726;-82
2021/04/12 19:24:20;;;;;;;5.35;2.70;;;6.40;99.90;;;;;;5047345;28;20196;-81
2021/04/12 19:26:53;;;;;;;3.83;2.35;;;6.20;99.90;;;;;;5043480;28;20441;-81
2021/04/12 19:29:30;;;;;;;3.35;2.40;;;6.40;99.90;;;;;;5044928;28;20195;-83
2021/04/12 19:32:09;;;;;;;8.95;3.75;;;6.40;99.90;;;;;;5044487;28;20191;-82
2021/04/12 19:34:42;;;;;;;2.70;2.50;;;6.40;99.90;;;;;;5045333;28;20230;-83
2021/04/12 19:37:14;;;;;;;3.03;2.72;;;6.30;99.90;;;;;;5044910;28;20232;-84
2021/04/12 19:39:47;;;;;;;7.05;2.70;;;6.30;99.90;;;;;;5048456;28;20290;-82